Time;durP1;ratioP1;P1;durP2;ratioP2;P2;SDS_P1;SDS_P2;PMS_P1;PMS_P2;Temp;Humidity;BMP_temperature;BMP_pressure;BME280_temperature;BME280_humidity;BME280_pressure;Samples;Min_cycle;Max_cycle;Signal;HPM_P1;HPM_P2
2022/09/16 00:02:11;;;;;;;7.15;1.20;;;;;;;;;;6157991;23;20034;-69
2022/09/16 00:04:38;;;;;;;2.85;2.03;;;;;;;;;;6157187;23;20030;-70
2022/09/16 00:07:04;;;;;;;7.07;1.25;;;;;;;;;;6157927;23;20026;-70
2022/09/16 00:09:31;;;;;;;2.75;1.08;;;;;;;;;;6157381;23;20065;-70
2022/09/16 00:11:57;;;;;;;4.78;1.25;;;;;;;;;;6154857;23;20026;-71
2022/09/16 00:14:23;;;;;;;4.00;1.58;;;;;;;;;;6153839;23;20448;-70
2022/09/16 00:16:49;;;;;;;3.97;1.08;;;;;;;;;;6157252;23;20455;-70
2022/09/16 00:19:16;;;;;;;1.50;0.80;;;;;;;;;;6158591;23;20982;-69
2022/09/16 00:21:45;;;;;;;2.22;0.98;;;;;;;;;;6157611;23;20041;-71
2022/09/16 00:24:12;;;;;;;4.43;1.10;;;;;;;;;;6157391;23;20061;-70
2022/09/16 00:26:39;;;;;;;4.03;1.10;;;;;;;;;;6157210;23;20029;-71
2022/09/16 00:29:05;;;;;;;8.02;1.30;;;;;;;;;;6153663;23;20037;-70
2022/09/16 00:31:31;;;;;;;4.00;1.10;;;;;;;;;;6157840;23;20026;-68
2022/09/16 00:33:58;;;;;;;5.00;1.05;;;;;;;;;;6157540;23;20073;-68
2022/09/16 00:36:24;;;;;;;8.40;1.15;;;;;;;;;;6156995;23;20030;-70
2022/09/16 00:38:53;;;;;;;4.28;1.05;;;;;;;;;;6157854;23;20030;-70
2022/09/16 00:41:25;;;;;;;4.53;1.10;;;;;;;;;;6157749;23;20037;-68
2022/09/16 00:43:54;;;;;;;5.53;1.08;;;;;;;;;;6156489;23;20085;-70
2022/09/16 00:46:26;;;;;;;3.55;1.10;;;;;;;;;;6156725;23;20085;-69
2022/09/16 00:48:53;;;;;;;4.38;1.00;;;;;;;;;;6157690;23;20503;-69
2022/09/16 00:51:20;;;;;;;4.00;1.10;;;;;;;;;;6157039;23;20101;-70
2022/09/16 00:53:50;;;;;;;5.03;1.20;;;;;;;;;;6156882;23;20030;-69
2022/09/16 00:56:18;;;;;;;7.30;1.35;;;;;;;;;;6157841;23;20034;-70
2022/09/16 00:58:50;;;;;;;7.22;1.65;;;;;;;;;;6155993;23;20034;-70
2022/09/16 01:01:16;;;;;;;9.48;1.00;;;;;;;;;;6157548;23;20390;-70
2022/09/16 01:03:52;;;;;;;4.63;1.63;;;;;;;;;;6157057;23;20026;-69
2022/09/16 01:06:20;;;;;;;3.90;1.20;;;;;;;;;;6157417;23;20034;-69
2022/09/16 01:08:48;;;;;;;2.80;0.95;;;;;;;;;;6156842;23;20086;-69
2022/09/16 01:11:14;;;;;;;3.50;1.13;;;;;;;;;;6157481;23;20472;-69
2022/09/16 01:13:41;;;;;;;8.13;1.50;;;;;;;;;;6155946;23;20499;-72
2022/09/16 01:16:14;;;;;;;2.47;1.00;;;;;;;;;;6157550;23;20034;-69
2022/09/16 01:18:59;;;;;;;3.92;1.13;;;;;;;;;;6157210;23;20029;-69
2022/09/16 01:21:34;;;;;;;4.50;0.90;;;;;;;;;;6156854;23;20029;-68
2022/09/16 01:24:07;;;;;;;3.28;1.20;;;;;;;;;;6157447;23;20030;-68
2022/09/16 01:26:45;;;;;;;5.88;1.13;;;;;;;;;;6157873;23;20033;-68
2022/09/16 01:29:20;;;;;;;7.38;1.10;;;;;;;;;;6157372;23;20030;-68
2022/09/16 01:31:49;;;;;;;5.03;1.10;;;;;;;;;;6158835;23;20030;-68
2022/09/16 01:34:15;;;;;;;4.60;0.95;;;;;;;;;;6158868;23;20101;-69
2022/09/16 01:36:45;;;;;;;2.58;1.15;;;;;;;;;;6158234;23;20030;-68
2022/09/16 01:39:17;;;;;;;2.88;0.80;;;;;;;;;;6158677;23;20037;-69
2022/09/16 01:41:52;;;;;;;1.63;0.60;;;;;;;;;;6158189;23;20468;-68
2022/09/16 01:44:21;;;;;;;1.33;0.60;;;;;;;;;;6155804;23;20029;-69
2022/09/16 01:46:58;;;;;;;3.00;1.30;;;;;;;;;;6158872;23;20037;-68
2022/09/16 01:49:46;;;;;;;4.05;0.85;;;;;;;;;;6158985;23;20076;-68
2022/09/16 01:52:15;;;;;;;6.35;1.13;;;;;;;;;;6158528;23;20037;-70
2022/09/16 01:54:48;;;;;;;8.65;1.80;;;;;;;;;;6158181;23;20077;-69
2022/09/16 01:57:14;;;;;;;2.67;0.93;;;;;;;;;;6158567;23;20034;-69
2022/09/16 01:59:43;;;;;;;5.38;1.40;;;;;;;;;;6159244;23;20078;-69
2022/09/16 02:02:15;;;;;;;2.72;1.02;;;;;;;;;;6158563;23;20045;-69
2022/09/16 02:04:48;;;;;;;2.65;0.88;;;;;;;;;;6157714;23;20550;-69
2022/09/16 02:07:16;;;;;;;4.90;1.10;;;;;;;;;;6158602;23;20405;-68
2022/09/16 02:09:47;;;;;;;6.40;1.27;;;;;;;;;;6158310;23;20033;-69
2022/09/16 02:12:15;;;;;;;6.70;1.15;;;;;;;;;;6158439;23;20025;-69
2022/09/16 02:14:46;;;;;;;4.90;1.10;;;;;;;;;;6158426;23;20026;-70
2022/09/16 02:17:14;;;;;;;2.72;0.90;;;;;;;;;;6158662;23;20085;-70
2022/09/16 02:19:47;;;;;;;4.00;1.58;;;;;;;;;;6158442;23;20037;-70
2022/09/16 02:22:21;;;;;;;6.18;1.38;;;;;;;;;;6158575;23;20034;-70
2022/09/16 02:24:48;;;;;;;3.53;1.05;;;;;;;;;;6157817;23;20034;-71
2022/09/16 02:27:16;;;;;;;5.90;1.17;;;;;;;;;;6158424;23;20026;-70
2022/09/16 02:29:45;;;;;;;3.50;0.88;;;;;;;;;;6157219;23;20109;-70
2022/09/16 02:32:12;;;;;;;6.13;1.17;;;;;;;;;;6158228;23;20034;-70
2022/09/16 02:34:41;;;;;;;3.20;1.00;;;;;;;;;;6157656;23;20554;-72
2022/09/16 02:37:09;;;;;;;4.53;0.90;;;;;;;;;;6158539;23;20511;-70
2022/09/16 02:39:37;;;;;;;6.15;1.20;;;;;;;;;;6158535;23;20266;-70
2022/09/16 02:42:04;;;;;;;3.30;1.00;;;;;;;;;;6157083;23;20049;-70
2022/09/16 02:44:30;;;;;;;5.70;1.30;;;;;;;;;;6158696;23;20026;-71
2022/09/16 02:47:02;;;;;;;1.85;0.73;;;;;;;;;;6156460;23;20030;-71
2022/09/16 02:49:39;;;;;;;3.70;0.85;;;;;;;;;;6158441;23;20113;-70
2022/09/16 02:52:09;;;;;;;6.35;1.30;;;;;;;;;;6158713;23;20034;-69
2022/09/16 02:54:38;;;;;;;0.60;0.60;;;;;;;;;;6158884;23;20029;-70
2022/09/16 02:57:05;;;;;;;6.35;1.40;;;;;;;;;;6158628;23;20038;-69
2022/09/16 02:59:32;;;;;;;5.78;1.20;;;;;;;;;;6156407;23;20034;-69
2022/09/16 03:01:59;;;;;;;2.15;1.13;;;;;;;;;;6157814;23;20030;-70
2022/09/16 03:04:27;;;;;;;2.78;1.25;;;;;;;;;;6158114;23;20030;-71
2022/09/16 03:06:53;;;;;;;3.25;0.90;;;;;;;;;;6157912;23;20479;-71
2022/09/16 03:09:23;;;;;;;4.82;0.88;;;;;;;;;;6158102;23;20085;-70
2022/09/16 03:11:49;;;;;;;4.10;1.05;;;;;;;;;;6158144;23;20025;-71
2022/09/16 03:14:15;;;;;;;5.13;0.98;;;;;;;;;;6158105;22;20411;-72
2022/09/16 03:16:44;;;;;;;2.80;1.05;;;;;;;;;;6158015;23;20030;-72
2022/09/16 03:19:18;;;;;;;3.97;0.93;;;;;;;;;;6158406;23;20026;-72
2022/09/16 03:21:53;;;;;;;0.65;0.65;;;;;;;;;;6158141;23;20077;-72
2022/09/16 03:24:39;;;;;;;5.00;1.20;;;;;;;;;;6157514;23;20029;-71
2022/09/16 03:27:11;;;;;;;5.85;1.17;;;;;;;;;;6156831;23;20029;-71
2022/09/16 03:29:41;;;;;;;4.82;0.80;;;;;;;;;;6158289;23;20033;-71
2022/09/16 03:32:17;;;;;;;6.07;1.23;;;;;;;;;;6157128;23;20033;-71
2022/09/16 03:34:43;;;;;;;2.03;0.80;;;;;;;;;;6158263;23;20081;-71
2022/09/16 03:37:11;;;;;;;2.25;1.00;;;;;;;;;;6158407;23;20484;-71
2022/09/16 03:39:38;;;;;;;5.32;1.20;;;;;;;;;;6158112;23;20057;-70
2022/09/16 03:42:06;;;;;;;3.25;0.88;;;;;;;;;;6158479;23;20034;-72
2022/09/16 03:44:34;;;;;;;8.05;1.08;;;;;;;;;;6157989;23;20030;-72
2022/09/16 03:47:01;;;;;;;2.45;0.80;;;;;;;;;;6158242;23;20026;-72
2022/09/16 03:49:29;;;;;;;4.72;0.65;;;;;;;;;;6157490;23;20026;-73
2022/09/16 03:51:55;;;;;;;5.05;1.40;;;;;;;;;;6158657;23;20460;-73
2022/09/16 03:54:22;;;;;;;6.72;1.40;;;;;;;;;;6158445;23;20033;-73
2022/09/16 03:56:48;;;;;;;3.40;0.82;;;;;;;;;;6157849;23;20084;-74
2022/09/16 03:59:14;;;;;;;2.58;0.93;;;;;;;;;;6157531;23;20026;-72
2022/09/16 04:01:40;;;;;;;1.77;0.52;;;;;;;;;;6158530;23;20471;-72
2022/09/16 04:04:07;;;;;;;2.42;0.90;;;;;;;;;;6157822;23;20030;-73
2022/09/16 04:06:33;;;;;;;4.15;0.80;;;;;;;;;;6158295;23;20109;-73
2022/09/16 04:09:03;;;;;;;2.92;1.02;;;;;;;;;;6158543;23;20025;-74
2022/09/16 04:11:31;;;;;;;5.32;0.80;;;;;;;;;;6158194;23;20411;-74
2022/09/16 04:13:57;;;;;;;2.83;0.88;;;;;;;;;;6157374;23;20026;-74
2022/09/16 04:16:24;;;;;;;5.10;2.33;;;;;;;;;;6158376;23;20029;-73
2022/09/16 04:18:50;;;;;;;8.23;2.28;;;;;;;;;;6158452;23;20069;-73
2022/09/16 04:21:17;;;;;;;6.40;1.27;;;;;;;;;;6158732;23;20088;-74
2022/09/16 04:23:43;;;;;;;4.53;0.90;;;;;;;;;;6158255;23;20408;-73
2022/09/16 04:26:10;;;;;;;3.13;0.80;;;;;;;;;;6158204;23;20464;-74
2022/09/16 04:28:36;;;;;;;4.43;1.40;;;;;;;;;;6158848;23;20029;-74
2022/09/16 04:31:03;;;;;;;1.33;0.50;;;;;;;;;;6158587;23;20450;-75
2022/09/16 04:33:30;;;;;;;2.15;0.60;;;;;;;;;;6158527;23;20026;-74
2022/09/16 04:36:07;;;;;;;2.03;0.70;;;;;;;;;;6158437;23;20026;-75
2022/09/16 04:38:34;;;;;;;4.25;0.95;;;;;;;;;;6157970;23;20400;-74
2022/09/16 04:41:05;;;;;;;1.67;0.82;;;;;;;;;;6157718;23;20029;-75
2022/09/16 04:43:31;;;;;;;0.77;0.47;;;;;;;;;;6158274;23;20089;-75
2022/09/16 04:45:58;;;;;;;5.95;0.95;;;;;;;;;;6157884;23;20874;-73
2022/09/16 04:48:24;;;;;;;7.43;0.95;;;;;;;;;;6157606;23;20092;-74
2022/09/16 04:50:51;;;;;;;3.97;0.80;;;;;;;;;;6157648;23;20029;-74
2022/09/16 04:53:18;;;;;;;2.78;0.73;;;;;;;;;;6158221;23;20030;-75
2022/09/16 04:55:45;;;;;;;1.02;0.55;;;;;;;;;;6157860;23;20048;-74
2022/09/16 04:58:11;;;;;;;3.92;1.45;;;;;;;;;;6155419;23;20974;-75
2022/09/16 05:00:37;;;;;;;3.95;0.85;;;;;;;;;;6157224;23;20029;-74
2022/09/16 05:03:04;;;;;;;3.75;1.00;;;;;;;;;;6157479;23;20026;-74
2022/09/16 05:05:30;;;;;;;3.03;0.98;;;;;;;;;;6159289;23;20085;-75
2022/09/16 05:07:56;;;;;;;4.28;0.90;;;;;;;;;;6157940;23;20026;-74
2022/09/16 05:10:22;;;;;;;2.25;0.82;;;;;;;;;;6157777;23;20089;-74
2022/09/16 05:12:49;;;;;;;5.53;1.00;;;;;;;;;;6159053;23;20030;-74
2022/09/16 05:15:15;;;;;;;3.55;0.73;;;;;;;;;;6159057;23;20038;-76
2022/09/16 05:17:42;;;;;;;5.40;1.45;;;;;;;;;;6158712;23;20037;-74
2022/09/16 05:20:17;;;;;;;5.72;1.23;;;;;;;;;;6158868;23;20030;-76
2022/09/16 05:22:43;;;;;;;2.47;0.90;;;;;;;;;;6159088;23;20029;-76
2022/09/16 05:25:09;;;;;;;3.78;1.10;;;;;;;;;;6158790;23;20034;-76
2022/09/16 05:27:35;;;;;;;5.03;1.77;;;;;;;;;;6158534;23;20523;-77
2022/09/16 05:30:02;;;;;;;3.63;0.95;;;;;;;;;;6158913;23;20531;-75
2022/09/16 05:32:28;;;;;;;3.10;0.98;;;;;;;;;;6157909;23;20037;-76
2022/09/16 05:34:55;;;;;;;5.10;0.85;;;;;;;;;;6157152;23;20059;-76
2022/09/16 05:37:21;;;;;;;4.32;1.23;;;;;;;;;;6158139;23;20037;-75
2022/09/16 05:39:48;;;;;;;3.40;1.02;;;;;;;;;;6158848;23;20476;-75
2022/09/16 05:42:14;;;;;;;6.97;1.27;;;;;;;;;;6159317;23;20030;-77
2022/09/16 05:44:40;;;;;;;9.27;1.20;;;;;;;;;;6158675;23;20030;-76
2022/09/16 05:47:06;;;;;;;3.45;1.30;;;;;;;;;;6159489;23;20026;-76
2022/09/16 05:49:33;;;;;;;3.60;1.20;;;;;;;;;;6159894;23;20037;-77
2022/09/16 05:51:59;;;;;;;7.68;1.52;;;;;;;;;;6159257;23;20069;-78
2022/09/16 05:54:25;;;;;;;2.88;1.73;;;;;;;;;;6158577;23;20029;-73
2022/09/16 05:56:51;;;;;;;5.82;1.17;;;;;;;;;;6157957;23;20503;-72
2022/09/16 05:59:18;;;;;;;5.90;1.10;;;;;;;;;;6158035;23;20034;-76
2022/09/16 06:01:44;;;;;;;3.88;1.25;;;;;;;;;;6159036;23;20522;-75
2022/09/16 06:04:11;;;;;;;3.40;1.08;;;;;;;;;;6159378;23;20037;-73
2022/09/16 06:06:39;;;;;;;3.33;0.95;;;;;;;;;;6158477;23;20464;-74
2022/09/16 06:09:10;;;;;;;3.90;0.75;;;;;;;;;;6159127;23;20030;-74
2022/09/16 06:11:37;;;;;;;6.30;1.48;;;;;;;;;;6158748;23;20117;-75
2022/09/16 06:14:04;;;;;;;2.55;0.90;;;;;;;;;;6159061;23;20062;-74
2022/09/16 06:16:31;;;;;;;3.78;1.10;;;;;;;;;;6158364;23;20053;-72
2022/09/16 06:19:02;;;;;;;2.60;0.95;;;;;;;;;;6159052;23;20037;-73
2022/09/16 06:21:28;;;;;;;5.65;1.13;;;;;;;;;;6158894;23;20454;-74
2022/09/16 06:23:55;;;;;;;5.60;1.08;;;;;;;;;;6158870;23;20061;-75
2022/09/16 06:26:23;;;;;;;3.90;0.90;;;;;;;;;;6159213;23;20026;-74
2022/09/16 06:28:50;;;;;;;3.85;1.05;;;;;;;;;;6157100;23;20089;-74
2022/09/16 06:31:18;;;;;;;6.60;1.15;;;;;;;;;;6159174;23;20412;-74
2022/09/16 06:33:44;;;;;;;8.43;1.42;;;;;;;;;;6159400;23;20026;-74
2022/09/16 06:36:12;;;;;;;2.80;0.80;;;;;;;;;;6158496;23;20034;-74
2022/09/16 06:38:39;;;;;;;5.53;1.20;;;;;;;;;;6157820;23;20026;-73
2022/09/16 06:41:06;;;;;;;6.53;1.08;;;;;;;;;;6158178;23;20030;-74
2022/09/16 06:43:33;;;;;;;5.97;1.20;;;;;;;;;;6159209;23;20062;-74
2022/09/16 06:46:01;;;;;;;1.83;1.05;;;;;;;;;;6158693;23;20174;-74
2022/09/16 06:48:28;;;;;;;4.72;1.08;;;;;;;;;;6158917;23;20407;-75
2022/09/16 06:51:01;;;;;;;3.33;1.50;;;;;;;;;;6159220;23;20034;-77
2022/09/16 06:53:28;;;;;;;12.63;1.77;;;;;;;;;;6157931;23;20026;-78
2022/09/16 06:55:58;;;;;;;5.32;0.93;;;;;;;;;;6159095;23;20089;-77
2022/09/16 06:58:24;;;;;;;3.13;0.95;;;;;;;;;;6159042;23;20038;-75
2022/09/16 07:00:51;;;;;;;4.60;1.45;;;;;;;;;;6159494;23;20550;-78
2022/09/16 07:03:17;;;;;;;2.83;1.00;;;;;;;;;;6159567;23;20058;-76
2022/09/16 07:05:54;;;;;;;7.55;1.00;;;;;;;;;;6158943;23;20033;-76
2022/09/16 07:08:20;;;;;;;5.78;1.30;;;;;;;;;;6158844;23;20030;-77
2022/09/16 07:10:54;;;;;;;2.30;1.00;;;;;;;;;;6159585;23;20103;-77
2022/09/16 07:13:20;;;;;;;4.95;1.40;;;;;;;;;;6159562;23;20081;-76
2022/09/16 07:15:46;;;;;;;6.10;1.40;;;;;;;;;;6158293;23;20037;-74
2022/09/16 07:18:33;;;;;;;6.32;1.50;;;;;;;;;;6158870;23;20049;-78
2022/09/16 07:21:01;;;;;;;3.33;1.10;;;;;;;;;;6159707;23;20085;-77
2022/09/16 07:23:28;;;;;;;8.15;1.23;;;;;;;;;;6158559;23;20452;-76
2022/09/16 07:26:01;;;;;;;2.55;1.10;;;;;;;;;;6158505;23;20476;-77
2022/09/16 07:28:27;;;;;;;2.72;1.20;;;;;;;;;;6158490;23;20037;-76
2022/09/16 07:30:54;;;;;;;10.25;1.83;;;;;;;;;;6158034;23;20530;-75
2022/09/16 07:33:20;;;;;;;3.00;1.05;;;;;;;;;;6156416;23;20034;-73
2022/09/16 07:35:46;;;;;;;3.75;1.00;;;;;;;;;;6158437;23;20085;-73
2022/09/16 07:38:12;;;;;;;0.82;0.60;;;;;;;;;;6158708;23;20026;-74
2022/09/16 07:40:40;;;;;;;2.25;0.82;;;;;;;;;;6158807;23;20034;-74
2022/09/16 07:43:06;;;;;;;3.92;0.70;;;;;;;;;;6158947;23;20030;-74
2022/09/16 07:45:32;;;;;;;4.53;0.95;;;;;;;;;;6158288;23;20033;-74
2022/09/16 07:47:59;;;;;;;2.40;0.70;;;;;;;;;;6158688;23;20127;-75
2022/09/16 07:50:25;;;;;;;6.57;1.02;;;;;;;;;;6158220;23;20085;-76
2022/09/16 07:52:54;;;;;;;3.10;0.90;;;;;;;;;;6158604;23;20030;-74
2022/09/16 07:55:21;;;;;;;3.30;0.98;;;;;;;;;;6158638;23;20021;-71
2022/09/16 07:57:47;;;;;;;6.75;1.52;;;;;;;;;;6158829;23;20026;-74
2022/09/16 08:00:15;;;;;;;5.15;1.00;;;;;;;;;;6158635;23;20037;-75
2022/09/16 08:02:41;;;;;;;4.20;0.88;;;;;;;;;;6158344;23;20037;-76
2022/09/16 08:05:08;;;;;;;7.35;1.00;;;;;;;;;;6159303;23;20026;-74
2022/09/16 08:07:35;;;;;;;2.60;0.73;;;;;;;;;;6158852;23;20026;-75
2022/09/16 08:10:02;;;;;;;3.92;1.00;;;;;;;;;;6160951;23;20034;-79
2022/09/16 08:12:33;;;;;;;4.82;0.90;;;;;;;;;;6159030;23;20032;-78
2022/09/16 08:14:59;;;;;;;3.88;0.80;;;;;;;;;;6158380;23;20033;-77
2022/09/16 08:17:26;;;;;;;2.10;0.57;;;;;;;;;;6158160;23;20034;-78
2022/09/16 08:19:57;;;;;;;2.53;1.17;;;;;;;;;;6157832;23;20028;-79
2022/09/16 08:22:24;;;;;;;2.85;1.10;;;;;;;;;;6158385;23;20061;-76
2022/09/16 08:24:50;;;;;;;4.70;1.05;;;;;;;;;;6159218;23;20466;-76
2022/09/16 08:27:17;;;;;;;7.60;1.17;;;;;;;;;;6158522;23;20026;-78
2022/09/16 08:29:43;;;;;;;5.07;1.10;;;;;;;;;;6158522;23;20030;-76
2022/09/16 08:32:10;;;;;;;1.00;0.52;;;;;;;;;;6159875;23;20037;-77
2022/09/16 08:34:37;;;;;;;8.10;0.60;;;;;;;;;;6159515;23;20029;-75
2022/09/16 08:37:03;;;;;;;1.65;0.77;;;;;;;;;;6158875;23;20030;-75
2022/09/16 08:39:30;;;;;;;3.20;0.95;;;;;;;;;;6158335;23;20029;-77
2022/09/16 08:41:56;;;;;;;2.50;0.77;;;;;;;;;;6160249;23;20097;-75
2022/09/16 08:44:31;;;;;;;2.92;0.70;;;;;;;;;;6159149;23;20029;-74
2022/09/16 08:46:59;;;;;;;3.35;0.68;;;;;;;;;;6158062;23;20030;-75
2022/09/16 08:49:31;;;;;;;2.72;0.82;;;;;;;;;;6158023;23;20057;-74
2022/09/16 08:51:58;;;;;;;3.58;1.15;;;;;;;;;;6158313;23;20030;-75
2022/09/16 08:54:39;;;;;;;6.60;1.10;;;;;;;;;;6158603;23;20050;-75
2022/09/16 08:57:10;;;;;;;2.75;0.68;;;;;;;;;;6159284;23;20383;-75
2022/09/16 08:59:39;;;;;;;8.27;1.08;;;;;;;;;;6159774;23;20025;-75
2022/09/16 09:02:19;;;;;;;4.90;0.77;;;;;;;;;;6158396;23;20085;-74
2022/09/16 09:04:47;;;;;;;2.90;0.60;;;;;;;;;;6160001;23;20175;-77
2022/09/16 09:07:36;;;;;;;3.50;0.68;;;;;;;;;;6159065;23;20025;-74
2022/09/16 09:10:13;;;;;;;1.90;0.60;;;;;;;;;;6158480;23;20034;-74
2022/09/16 09:12:44;;;;;;;2.85;0.85;;;;;;;;;;6158976;23;20029;-76
2022/09/16 09:15:24;;;;;;;3.28;1.40;;;;;;;;;;6133234;23;20057;-73
2022/09/16 09:17:53;;;;;;;6.50;1.30;;;;;;;;;;6159064;23;20033;-77
2022/09/16 09:20:23;;;;;;;8.82;1.25;;;;;;;;;;6158996;23;20026;-72
2022/09/16 09:23:08;;;;;;;4.40;0.80;;;;;;;;;;6159322;23;20026;-73
2022/09/16 09:25:57;;;;;;;3.72;1.00;;;;;;;;;;6159640;23;20454;-74
2022/09/16 09:28:29;;;;;;;7.35;1.65;;;;;;;;;;6133568;23;20033;-74
2022/09/16 09:31:14;;;;;;;4.70;0.85;;;;;;;;;;6159182;23;20042;-73
2022/09/16 09:33:48;;;;;;;4.90;1.10;;;;;;;;;;6133003;23;20512;-73
2022/09/16 09:36:28;;;;;;;3.45;0.95;;;;;;;;;;6158192;23;20050;-73
2022/09/16 09:39:09;;;;;;;3.17;0.80;;;;;;;;;;6159051;23;20034;-73
2022/09/16 09:41:39;;;;;;;7.63;0.75;;;;;;;;;;6159337;23;20030;-72
2022/09/16 09:44:29;;;;;;;5.40;0.52;;;;;;;;;;6133068;23;20435;-74
2022/09/16 09:46:58;;;;;;;4.53;0.50;;;;;;;;;;6090727;23;20464;-71
2022/09/16 09:49:32;;;;;;;1.65;0.70;;;;;;;;;;6160610;23;20050;-73
2022/09/16 09:52:09;;;;;;;4.97;0.83;;;;;;;;;;6134158;23;20034;-73
2022/09/16 09:54:36;;;;;;;4.18;0.80;;;;;;;;;;6160005;23;20026;-72
2022/09/16 09:57:22;;;;;;;4.10;0.70;;;;;;;;;;6159745;23;20077;-72
2022/09/16 09:59:51;;;;;;;1.98;0.52;;;;;;;;;;6160175;23;20036;-74
2022/09/16 10:02:20;;;;;;;3.72;0.57;;;;;;;;;;6159613;23;20081;-72
2022/09/16 10:04:46;;;;;;;5.28;1.00;;;;;;;;;;6159997;23;20550;-71
2022/09/16 10:07:14;;;;;;;5.03;0.75;;;;;;;;;;6160363;23;20026;-73
2022/09/16 10:09:46;;;;;;;2.45;0.82;;;;;;;;;;6160188;23;20026;-73
2022/09/16 10:12:12;;;;;;;1.98;0.50;;;;;;;;;;6133841;23;20038;-74
2022/09/16 10:14:39;;;;;;;7.60;1.42;;;;;;;;;;6159728;23;20049;-72
2022/09/16 10:17:13;;;;;;;3.60;0.90;;;;;;;;;;6160188;23;20033;-72
2022/09/16 10:19:52;;;;;;;2.97;0.70;;;;;;;;;;6159542;23;20381;-70
2022/09/16 10:22:20;;;;;;;2.08;0.40;;;;;;;;;;6159195;23;20030;-71
2022/09/16 10:24:53;;;;;;;2.95;0.77;;;;;;;;;;6159485;23;20519;-70
2022/09/16 10:27:21;;;;;;;0.38;0.30;;;;;;;;;;6159675;23;20026;-72
2022/09/16 10:30:01;;;;;;;2.60;0.63;;;;;;;;;;6159163;23;20033;-73
2022/09/16 10:32:27;;;;;;;2.60;0.63;;;;;;;;;;6159611;23;20033;-72
2022/09/16 10:34:54;;;;;;;1.58;0.70;;;;;;;;;;6159872;23;20030;-73
2022/09/16 10:37:21;;;;;;;5.28;0.68;;;;;;;;;;6160417;23;20140;-71
2022/09/16 10:39:56;;;;;;;2.42;0.80;;;;;;;;;;6159894;23;20460;-72
2022/09/16 10:42:33;;;;;;;3.38;0.63;;;;;;;;;;6159597;23;20105;-74
2022/09/16 10:45:09;;;;;;;2.28;0.57;;;;;;;;;;6159180;23;20030;-73
2022/09/16 10:47:37;;;;;;;2.78;0.80;;;;;;;;;;6159880;23;20030;-73
2022/09/16 10:50:07;;;;;;;8.10;1.38;;;;;;;;;;6159526;23;20454;-72
2022/09/16 10:52:41;;;;;;;4.35;1.05;;;;;;;;;;6159475;23;20085;-71
2022/09/16 10:55:23;;;;;;;2.20;0.50;;;;;;;;;;6158970;23;20030;-72
2022/09/16 10:57:49;;;;;;;2.17;0.65;;;;;;;;;;6160459;23;20083;-72
2022/09/16 11:00:18;;;;;;;1.98;0.75;;;;;;;;;;6159830;23;20026;-73
2022/09/16 11:03:12;;;;;;;6.43;0.73;;;;;;;;;;6158388;23;20081;-72
2022/09/16 11:05:57;;;;;;;1.77;0.60;;;;;;;;;;6160240;23;20081;-73
2022/09/16 11:08:23;;;;;;;7.90;1.07;;;;;;;;;;6159985;23;20040;-73
2022/09/16 11:11:08;;;;;;;1.95;0.70;;;;;;;;;;6159940;23;20325;-73
2022/09/16 11:13:53;;;;;;;2.50;0.50;;;;;;;;;;6157950;23;20031;-72
2022/09/16 11:16:28;;;;;;;0.95;0.50;;;;;;;;;;6159700;23;20067;-72
2022/09/16 11:19:06;;;;;;;1.90;0.70;;;;;;;;;;6158504;23;20117;-71
2022/09/16 11:21:55;;;;;;;3.20;0.70;;;;;;;;;;6160143;23;20088;-78
2022/09/16 11:24:34;;;;;;;1.92;0.60;;;;;;;;;;6160470;23;20085;-73
2022/09/16 11:27:27;;;;;;;3.50;0.60;;;;;;;;;;6158421;23;20077;-73
2022/09/16 11:30:01;;;;;;;4.72;0.93;;;;;;;;;;6154700;23;20033;-72
2022/09/16 11:32:40;;;;;;;2.38;0.80;;;;;;;;;;6159910;23;20030;-73
2022/09/16 11:35:24;;;;;;;1.55;0.52;;;;;;;;;;6159540;23;20516;-71
2022/09/16 11:37:53;;;;;;;2.17;0.60;;;;;;;;;;6159372;23;20082;-73
2022/09/16 11:40:25;;;;;;;3.50;1.10;;;;;;;;;;6159677;23;20078;-73
2022/09/16 11:43:10;;;;;;;2.88;1.02;;;;;;;;;;6160015;23;20026;-74
2022/09/16 11:45:57;;;;;;;11.13;2.05;;;;;;;;;;6158978;23;20022;-73
2022/09/16 11:48:41;;;;;;;2.35;0.70;;;;;;;;;;6159966;23;20060;-73
2022/09/16 11:51:17;;;;;;;4.50;1.60;;;;;;;;;;6159329;23;20026;-72
2022/09/16 11:53:49;;;;;;;3.78;0.77;;;;;;;;;;6159402;23;20085;-71
2022/09/16 11:56:19;;;;;;;3.17;1.02;;;;;;;;;;6159380;23;20022;-73
2022/09/16 11:58:49;;;;;;;1.05;0.28;;;;;;;;;;6159678;23;20037;-72
2022/09/16 12:01:21;;;;;;;2.70;0.50;;;;;;;;;;6159646;23;20073;-73
2022/09/16 12:03:50;;;;;;;6.82;2.47;;;;;;;;;;6159821;23;20033;-74
2022/09/16 12:06:18;;;;;;;4.70;0.98;;;;;;;;;;6160147;23;20029;-73
2022/09/16 12:08:51;;;;;;;2.47;0.70;;;;;;;;;;6159805;23;20077;-72
2022/09/16 12:11:19;;;;;;;1.50;0.60;;;;;;;;;;6159060;23;20451;-73
2022/09/16 12:13:51;;;;;;;1.88;0.70;;;;;;;;;;6159603;23;20026;-74
2022/09/16 12:16:57;;;;;;;3.17;1.00;;;;;;;;;;6159386;23;20034;-72
2022/09/16 12:19:27;;;;;;;3.60;1.05;;;;;;;;;;6155091;23;20455;-73
2022/09/16 12:21:56;;;;;;;4.15;0.65;;;;;;;;;;6159482;23;20086;-74
2022/09/16 12:24:23;;;;;;;8.63;1.23;;;;;;;;;;6159546;23;20030;-73
2022/09/16 12:27:12;;;;;;;8.23;2.05;;;;;;;;;;6159664;23;20452;-74
2022/09/16 12:29:42;;;;;;;8.50;1.38;;;;;;;;;;6159143;23;20085;-75
2022/09/16 12:32:14;;;;;;;4.20;0.90;;;;;;;;;;6159464;23;20499;-74
2022/09/16 12:34:43;;;;;;;8.52;1.00;;;;;;;;;;6159553;23;20479;-73
2022/09/16 12:37:09;;;;;;;10.25;2.47;;;;;;;;;;6159650;23;20062;-73
2022/09/16 12:39:35;;;;;;;8.23;1.33;;;;;;;;;;6159401;23;20030;-72
2022/09/16 12:42:09;;;;;;;2.20;0.60;;;;;;;;;;6159833;23;20077;-73
2022/09/16 12:44:45;;;;;;;3.28;0.73;;;;;;;;;;6159623;23;20034;-72
2022/09/16 12:47:34;;;;;;;6.38;1.05;;;;;;;;;;6159313;23;20145;-72
2022/09/16 12:50:18;;;;;;;2.97;1.02;;;;;;;;;;6159220;23;20030;-73
2022/09/16 12:52:45;;;;;;;4.07;1.23;;;;;;;;;;6160162;23;20108;-73
2022/09/16 12:55:30;;;;;;;5.97;1.30;;;;;;;;;;6159616;23;20037;-72
2022/09/16 12:58:07;;;;;;;3.63;1.23;;;;;;;;;;6159646;23;20472;-72
2022/09/16 13:00:43;;;;;;;2.72;0.80;;;;;;;;;;6159393;23;20417;-72
2022/09/16 13:03:21;;;;;;;8.13;1.25;;;;;;;;;;6158906;23;20030;-74
2022/09/16 13:05:49;;;;;;;4.65;1.50;;;;;;;;;;6159690;23;20030;-74
2022/09/16 13:08:27;;;;;;;4.45;1.05;;;;;;;;;;6159237;23;20037;-73
2022/09/16 13:11:04;;;;;;;3.75;1.23;;;;;;;;;;6159056;23;20514;-75
2022/09/16 13:13:53;;;;;;;9.27;1.55;;;;;;;;;;6157773;23;20447;-71
2022/09/16 13:16:30;;;;;;;5.85;0.90;;;;;;;;;;6159349;23;20110;-72
2022/09/16 13:19:05;;;;;;;2.80;0.75;;;;;;;;;;6158357;23;20931;-71
2022/09/16 13:21:32;;;;;;;;;;;;;;;;;;6159128;23;20037;-72
2022/09/16 13:24:17;;;;;;;5.38;1.35;;;;;;;;;;6158118;23;45116;-74
2022/09/16 13:26:44;;;;;;;4.25;1.10;;;;;;;;;;6159294;23;20097;-73
2022/09/16 13:29:29;;;;;;;4.38;1.20;;;;;;;;;;6159882;23;20033;-69
2022/09/16 13:31:55;;;;;;;6.38;1.17;;;;;;;;;;6160420;23;20033;-69
2022/09/16 13:34:26;;;;;;;4.70;1.05;;;;;;;;;;6160164;23;20447;-68
2022/09/16 13:36:52;;;;;;;7.93;1.65;;;;;;;;;;6159698;23;20053;-69
2022/09/16 13:39:39;;;;;;;5.10;2.13;;;;;;;;;;6160772;23;20455;-72
2022/09/16 13:42:09;;;;;;;8.25;0.98;;;;;;;;;;6160703;23;20089;-71
2022/09/16 13:44:35;;;;;;;8.43;1.40;;;;;;;;;;6159984;23;20025;-71
2022/09/16 13:47:08;;;;;;;6.25;1.38;;;;;;;;;;6159938;23;20468;-73
2022/09/16 13:49:47;;;;;;;5.18;1.65;;;;;;;;;;6159703;23;20040;-71
2022/09/16 13:52:31;;;;;;;4.43;0.82;;;;;;;;;;6159427;23;20102;-69
2022/09/16 13:55:03;;;;;;;3.70;1.23;;;;;;;;;;6159424;23;20037;-71
2022/09/16 13:57:57;;;;;;;4.72;0.90;;;;;;;;;;6158969;23;20238;-72
2022/09/16 14:00:23;;;;;;;;;;;;;;;;;;6160228;23;20026;-73
2022/09/16 14:02:58;;;;;;;4.68;1.10;;;;;;;;;;6158649;23;46064;-72
2022/09/16 14:05:43;;;;;;;1.60;0.50;;;;;;;;;;6160096;23;20100;-71
2022/09/16 14:08:28;;;;;;;8.95;0.70;;;;;;;;;;6160251;23;20026;-70
2022/09/16 14:10:57;;;;;;;3.45;1.13;;;;;;;;;;6159887;23;20030;-72
2022/09/16 14:13:29;;;;;;;3.72;1.10;;;;;;;;;;6160104;23;20030;-73
2022/09/16 14:15:59;;;;;;;7.15;1.02;;;;;;;;;;6159697;23;20033;-72
2022/09/16 14:18:28;;;;;;;2.88;1.13;;;;;;;;;;6159719;23;20034;-72
2022/09/16 14:20:54;;;;;;;3.65;0.90;;;;;;;;;;6159294;23;20085;-74
2022/09/16 14:23:22;;;;;;;4.30;1.33;;;;;;;;;;6159884;23;20030;-73
2022/09/16 14:25:48;;;;;;;9.10;1.30;;;;;;;;;;6159599;23;20495;-71
2022/09/16 14:28:19;;;;;;;5.28;0.60;;;;;;;;;;6158680;23;20026;-73
2022/09/16 14:30:49;;;;;;;3.92;0.90;;;;;;;;;;6159644;23;20036;-72
2022/09/16 14:33:18;;;;;;;3.65;0.85;;;;;;;;;;6158561;23;20065;-71
2022/09/16 14:35:45;;;;;;;7.47;1.10;;;;;;;;;;6158346;23;20044;-72
2022/09/16 14:38:14;;;;;;;5.32;1.00;;;;;;;;;;6159348;23;20041;-71
2022/09/16 14:41:01;;;;;;;6.65;0.73;;;;;;;;;;6159191;23;20026;-70
2022/09/16 14:43:27;;;;;;;5.45;0.90;;;;;;;;;;6158993;23;20970;-70
2022/09/16 14:45:56;;;;;;;5.30;1.25;;;;;;;;;;6158969;23;20034;-68
2022/09/16 14:48:33;;;;;;;6.35;0.93;;;;;;;;;;6159460;23;20037;-74
2022/09/16 14:51:00;;;;;;;3.78;0.90;;;;;;;;;;6159410;23;20030;-72
2022/09/16 14:53:31;;;;;;;11.27;1.13;;;;;;;;;;6159032;23;20336;-72
2022/09/16 14:56:03;;;;;;;3.53;1.00;;;;;;;;;;6158984;23;20030;-71
2022/09/16 14:58:30;;;;;;;11.18;2.25;;;;;;;;;;6158992;23;20029;-71
2022/09/16 15:00:58;;;;;;;13.15;1.42;;;;;;;;;;6159274;23;20030;-72
2022/09/16 15:03:28;;;;;;;4.85;1.20;;;;;;;;;;6159077;23;20081;-71
2022/09/16 15:05:58;;;;;;;7.60;1.27;;;;;;;;;;6158876;23;20034;-71